METAR Data
IDs: Format: Raw Decoded Include TAF

Data at: 2010 UTC 08 Aug 2020

KIGM 081951Z AUTO 25020G24KT 10SM CLR 37/01 A3006 RMK AO2 SLP100 T03720006
KIGM 081851Z AUTO 24008G20KT 10SM CLR 36/01 A3008 RMK AO2 SLP106 T03560006
KIGM 081751Z AUTO 10SM CLR 34/M01 A3009 RMK AO2 SLP113 T03441006 10344 20194 58001
KIGM 081651Z AUTO 00000KT 10SM CLR 32/M02 A3010 RMK AO2 SLP116 T03221022
KIGM 081551Z AUTO VRB03KT 10SM CLR 31/M03 A3010 RMK AO2 SLP117 T03111033
KIGM 081451Z AUTO 12010KT 10SM CLR 29/M07 A3009 RMK AO2 SLP114 T02891067 51016
KIGM 081351Z AUTO 13014KT 10SM CLR 25/M08 A3008 RMK AO2 WSHFT 1249 SLP110 T02501078
KIGM 081305Z AUTO 15013KT 10SM CLR 23/M08 A3007 RMK AO2 WSHFT 1249 T02281078
KIGM 081251Z AUTO 14012KT 10SM CLR 21/M08 A3006 RMK AO2 SLP104 T02111078
KIGM 081151Z AUTO 15010KT 10SM CLR 22/M07 A3004 RMK AO2 SLP097 T02171072 10233 20172 53002
KIGM 081051Z AUTO 16004KT 10SM CLR 21/M09 A3004 RMK AO2 SLP095 T02111094
KIGM 080951Z AUTO 24004KT 10SM CLR 19/M11 A3004 RMK AO2 SLP096 T01941106
KIGM 080851Z AUTO 00000KT 10SM CLR 21/M11 A3003 RMK AO2 SLP095 T02111106 50004
KIGM 080751Z AUTO 16010KT 10SM CLR 22/M09 A3004 RMK AO2 SLP094 T02221089
KIGM 080651Z AUTO 16010KT 10SM CLR 23/M08 A3003 RMK AO2 SLP093 T02281078 403670194
KIGM 080551Z AUTO 17011KT 10SM CLR 23/M09 A3002 RMK AO2 SLP090 T02331089 10356 20228 51010
KIGM 080451Z AUTO 19011KT 10SM CLR 24/M09 A3002 RMK AO2 SLP088 T02441094
KIGM 080351Z AUTO 20008KT 10SM CLR 24/M11 A3001 RMK AO2 SLP087 T02441106
KIGM 080251Z AUTO 22008KT 10SM CLR 28/M10 A2999 RMK AO2 SLP079 T02831100 53005
KIGM 080151Z AUTO 22013KT 10SM CLR 33/M09 A2998 RMK AO2 PK WND 22026/0059 SLP075 T03281094
KIGM 080051Z AUTO 21016G25KT 10SM CLR 34/M11 A2997 RMK AO2 SLP073 T03441106
KIGM 072351Z AUTO 22017G24KT 10SM CLR 36/M09 A2998 RMK AO2 PK WND 22027/2253 SLP073 T03561094 10367 20339 56009
KIGM 072251Z AUTO 22014G24KT 10SM CLR 36/M09 A2998 RMK AO2 PK WND 24026/2234 SLP076 T03611089
KIGM 072151Z AUTO 23017G27KT 10SM CLR 36/M08 A3000 RMK AO2 PK WND 23029/2126 SLP077 T03611083
KIGM 072051Z AUTO 24014G25KT 10SM CLR 36/M07 A3000 RMK AO2 PK WND 24028/2029 SLP081 T03561072 58005
KIGM 071951Z AUTO 23020G29KT 10SM CLR 36/M07 A3001 RMK AO2 PK WND 22029/1946 SLP085 T03561067
KIGM 071851Z AUTO 22015G23KT 10SM CLR 35/M08 A3002 RMK AO2 SLP086 T03501083
KIGM 071751Z AUTO 23017G23KT 10SM CLR 34/M08 A3002 RMK AO2 SLP087 T03391083 10344 20217 51008
KIGM 071651Z AUTO 26013KT 10SM CLR 32/M03 A3002 RMK AO2 SLP085 T03221033
KIGM 071551Z AUTO 12007KT 10SM CLR 30/M04 A3001 RMK AO2 SLP085 T03001039
KIGM 071451Z AUTO 13008KT 10SM CLR 28/M05 A2999 RMK AO2 SLP080 T02781050 53013
KIGM 071351Z AUTO 14011KT 10SM CLR 24/M06 A2998 RMK AO2 SLP074 T02441056
KIGM 071251Z AUTO 14011KT 10SM CLR 22/M06 A2996 RMK AO2 SLP070 T02221056
KIGM 071151Z AUTO 15011KT 10SM CLR 22/M06 A2995 RMK AO2 SLP066 T02221061 10256 20194 53004
KIGM 071051Z AUTO 15009KT 10SM CLR 21/M06 A2994 RMK AO2 SLP064 T02061056
KIGM 070951Z AUTO 15007KT 10SM CLR 24/M06 A2994 RMK AO2 SLP058 T02441056
KIGM 070851Z AUTO 15013KT 10SM CLR 23/M06 A2994 RMK AO2 SLP059 T02331056 50001